createdAt,value
2018-06-15T00:01:01.321Z,16.72
2018-06-15T00:03:30.000Z,16.79
2018-06-15T00:05:58.595Z,16.85
2018-06-15T00:08:27.201Z,16.79
2018-06-15T00:10:55.761Z,16.85
2018-06-15T00:13:24.440Z,16.85
2018-06-15T00:15:53.109Z,16.85
2018-06-15T00:18:21.980Z,16.79
2018-06-15T00:20:50.641Z,16.81
2018-06-15T00:23:19.372Z,16.71
2018-06-15T00:25:47.977Z,16.76
2018-06-15T00:28:16.560Z,16.76
2018-06-15T00:30:45.172Z,16.79
2018-06-15T00:33:13.815Z,16.74
2018-06-15T00:35:42.377Z,16.70
2018-06-15T00:38:10.980Z,16.61
2018-06-15T00:40:39.625Z,16.60
2018-06-15T00:43:08.357Z,16.59
2018-06-15T00:45:36.973Z,16.63
2018-06-15T00:48:05.568Z,16.61
2018-06-15T00:50:34.363Z,16.65
2018-06-15T00:53:03.027Z,16.70
2018-06-15T00:55:31.776Z,16.75
2018-06-15T00:58:00.768Z,16.78
2018-06-15T01:00:29.415Z,16.81
2018-06-15T01:02:57.996Z,16.87
2018-06-15T01:05:26.574Z,16.82
2018-06-15T01:07:55.378Z,16.83
2018-06-15T01:10:23.990Z,16.83
2018-06-15T01:12:52.552Z,16.77
2018-06-15T01:15:21.407Z,16.82
2018-06-15T01:17:50.038Z,16.80
2018-06-15T01:20:18.636Z,16.73
2018-06-15T01:22:47.205Z,16.77
2018-06-15T01:25:15.953Z,16.81
2018-06-15T01:27:44.566Z,16.81
2018-06-15T01:30:13.185Z,16.84
2018-06-15T01:32:41.737Z,16.81
2018-06-15T01:35:10.360Z,16.81
2018-06-15T01:37:38.977Z,16.83
2018-06-15T01:40:07.687Z,16.77
2018-06-15T01:42:36.284Z,16.76
2018-06-15T01:45:04.941Z,16.77
2018-06-15T01:47:33.568Z,16.78
2018-06-15T01:50:02.125Z,16.72
2018-06-15T01:52:30.740Z,16.69
2018-06-15T01:54:59.349Z,16.63
2018-06-15T01:57:27.968Z,16.56
2018-06-15T01:59:56.736Z,16.55
2018-06-15T02:02:25.409Z,16.51
2018-06-15T02:04:54.020Z,16.55
2018-06-15T02:07:22.620Z,16.61
2018-06-15T02:09:51.565Z,16.67
2018-06-15T02:12:21.865Z,16.64
2018-06-15T02:14:50.508Z,16.67
2018-06-15T02:17:19.210Z,16.70
2018-06-15T02:19:47.847Z,16.78
2018-06-15T02:22:16.473Z,16.78
2018-06-15T02:24:45.271Z,16.76
2018-06-15T02:27:13.823Z,16.72
2018-06-15T02:29:43.462Z,16.66
2018-06-15T02:32:12.118Z,16.66
2018-06-15T02:34:40.804Z,16.58
2018-06-15T02:37:09.386Z,16.57
2018-06-15T02:39:38.053Z,16.58
2018-06-15T02:42:06.663Z,16.66
2018-06-15T02:44:35.285Z,16.68
2018-06-15T02:47:04.086Z,16.68
2018-06-15T02:49:32.685Z,16.69
2018-06-15T02:52:01.448Z,16.66
2018-06-15T02:54:30.327Z,16.72
2018-06-15T02:56:58.992Z,16.73
2018-06-15T02:59:27.689Z,16.80
2018-06-15T03:01:56.457Z,16.69
2018-06-15T03:04:25.233Z,16.69
2018-06-15T03:06:54.124Z,16.70
2018-06-15T03:09:22.760Z,16.70
2018-06-15T03:11:51.408Z,16.67
2018-06-15T03:14:20.133Z,16.63
2018-06-15T03:16:48.902Z,16.68
2018-06-15T03:19:17.491Z,16.63
2018-06-15T03:21:46.425Z,16.64
2018-06-15T03:24:15.042Z,16.69
2018-06-15T03:26:44.105Z,16.61
2018-06-15T03:29:12.657Z,16.67
2018-06-15T03:31:41.517Z,16.63
2018-06-15T03:34:10.121Z,16.67
2018-06-15T03:36:38.776Z,16.70
2018-06-15T03:39:09.492Z,16.67
2018-06-15T03:41:38.105Z,16.70
2018-06-15T03:44:06.743Z,16.72
2018-06-15T03:46:36.990Z,16.78
2018-06-15T03:49:05.639Z,16.82
2018-06-15T03:51:34.462Z,16.86
2018-06-15T03:54:03.613Z,16.90
2018-06-15T03:56:32.604Z,16.82
2018-06-15T03:59:01.146Z,16.78
2018-06-15T04:01:29.764Z,16.77
2018-06-15T04:03:58.389Z,16.75
2018-06-15T04:06:27.040Z,16.76
2018-06-15T04:08:55.790Z,16.78
2018-06-15T04:11:24.429Z,16.82
2018-06-15T04:13:53.033Z,16.80
2018-06-15T04:16:21.585Z,16.80
2018-06-15T04:18:50.201Z,16.83
2018-06-15T04:21:18.880Z,16.89
2018-06-15T04:23:47.464Z,16.92
2018-06-15T04:26:16.029Z,16.96
2018-06-15T04:28:44.625Z,17.03
2018-06-15T04:31:13.209Z,17.06
2018-06-15T04:33:41.819Z,17.03
2018-06-15T04:36:10.444Z,16.97
2018-06-15T04:38:38.976Z,16.93
2018-06-15T04:41:07.821Z,16.94
2018-06-15T04:43:36.395Z,16.96
2018-06-15T04:46:05.133Z,17.05
2018-06-15T04:48:33.704Z,17.07
2018-06-15T04:51:02.491Z,17.10
2018-06-15T04:53:31.182Z,17.11
2018-06-15T04:55:59.793Z,17.09
2018-06-15T04:58:28.431Z,17.03
2018-06-15T05:00:57.056Z,17.02
2018-06-15T05:03:25.888Z,17.10
2018-06-15T05:05:54.568Z,17.03
2018-06-15T05:08:23.184Z,17.09
2018-06-15T05:10:51.806Z,17.12
2018-06-15T05:13:20.384Z,17.20
2018-06-15T05:15:49.090Z,17.12
2018-06-15T05:18:18.869Z,17.16
2018-06-15T05:20:47.488Z,17.20
2018-06-15T05:23:16.140Z,17.22
2018-06-15T05:25:44.750Z,17.27
2018-06-15T05:28:13.340Z,17.30
2018-06-15T05:30:42.067Z,17.29
2018-06-15T05:33:10.896Z,17.38
2018-06-15T05:35:39.512Z,17.50
2018-06-15T05:38:08.111Z,17.54
2018-06-15T05:40:36.800Z,17.43
2018-06-15T05:43:05.503Z,17.27
2018-06-15T05:45:34.104Z,17.27
2018-06-15T05:48:02.816Z,17.32
2018-06-15T05:50:31.421Z,17.30
2018-06-15T05:53:00.209Z,17.22
2018-06-15T05:55:28.951Z,17.28
2018-06-15T05:57:57.713Z,17.24
2018-06-15T06:00:26.427Z,17.22
2018-06-15T06:02:55.319Z,17.24
2018-06-15T06:05:23.918Z,17.35
2018-06-15T06:07:52.951Z,17.32
2018-06-15T06:10:21.720Z,17.38
2018-06-15T06:12:50.578Z,17.37
2018-06-15T06:15:19.172Z,17.43
2018-06-15T06:17:47.924Z,17.45
2018-06-15T06:20:16.545Z,17.52
2018-06-15T06:22:45.112Z,17.62
2018-06-15T06:25:13.992Z,17.64
2018-06-15T06:27:42.548Z,17.74
2018-06-15T06:30:11.196Z,17.94
2018-06-15T06:32:39.899Z,18.09
2018-06-15T06:35:08.532Z,18.09
2018-06-15T06:37:37.106Z,17.90
2018-06-15T06:40:05.729Z,17.86
2018-06-15T06:42:34.344Z,17.85
2018-06-15T06:45:02.888Z,17.82
2018-06-15T06:47:31.523Z,17.85
2018-06-15T06:50:00.091Z,17.97
2018-06-15T06:52:28.701Z,18.02
2018-06-15T06:54:57.400Z,18.07
2018-06-15T06:57:26.061Z,18.22
2018-06-15T06:59:54.686Z,18.46
2018-06-15T07:02:23.257Z,18.48
2018-06-15T07:04:51.846Z,18.28
2018-06-15T07:07:20.476Z,18.29
2018-06-15T07:09:49.055Z,18.41
2018-06-15T07:12:18.055Z,18.41
2018-06-15T07:14:46.630Z,18.44
2018-06-15T07:17:15.256Z,18.43
2018-06-15T07:19:43.836Z,18.42
2018-06-15T07:22:12.468Z,18.34
2018-06-15T07:24:41.104Z,18.43
2018-06-15T07:27:09.672Z,18.37
2018-06-15T07:29:38.228Z,18.60
2018-06-15T07:32:07.539Z,18.77
2018-06-15T07:34:36.160Z,18.88
2018-06-15T07:37:04.815Z,18.90
2018-06-15T07:39:33.596Z,18.79
2018-06-15T07:42:02.278Z,18.90
2018-06-15T07:44:30.853Z,18.70
2018-06-15T07:46:59.426Z,18.88
2018-06-15T07:49:28.057Z,18.83
2018-06-15T07:51:56.672Z,18.76
2018-06-15T07:54:25.264Z,18.80
2018-06-15T07:56:53.816Z,18.86
2018-06-15T07:59:22.780Z,18.95
2018-06-15T08:01:51.369Z,18.93
2018-06-15T08:04:21.460Z,18.97
2018-06-15T08:06:50.290Z,18.94
2018-06-15T08:09:19.248Z,18.75
2018-06-15T08:11:47.844Z,18.86
2018-06-15T08:14:16.368Z,18.95
2018-06-15T08:16:44.939Z,19.04
2018-06-15T08:19:13.524Z,19.13
2018-06-15T08:21:42.124Z,19.14
2018-06-15T08:24:10.836Z,19.16
2018-06-15T08:26:39.440Z,19.23
2018-06-15T08:29:07.959Z,19.38
2018-06-15T08:31:36.668Z,19.54
2018-06-15T08:34:05.294Z,19.72
2018-06-15T08:36:34.019Z,19.79
2018-06-15T08:39:02.717Z,19.73
2018-06-15T08:41:31.270Z,19.65
2018-06-15T08:43:59.868Z,19.75
2018-06-15T08:46:28.539Z,19.53
2018-06-15T08:48:57.113Z,19.74
2018-06-15T08:51:25.710Z,19.69
2018-06-15T08:53:54.364Z,19.68
2018-06-15T08:56:22.970Z,19.60
2018-06-15T08:58:51.611Z,19.56
2018-06-15T09:01:20.177Z,19.69
2018-06-15T09:03:48.779Z,19.59
2018-06-15T09:06:17.340Z,19.60
2018-06-15T09:08:45.973Z,19.64
2018-06-15T09:11:14.557Z,19.67
2018-06-15T09:13:43.167Z,19.79
2018-06-15T09:16:11.804Z,19.73
2018-06-15T09:18:40.537Z,19.73
2018-06-15T09:21:09.099Z,20.01
2018-06-15T09:23:37.704Z,20.28
2018-06-15T09:26:06.356Z,20.55
2018-06-15T09:28:35.043Z,20.61
2018-06-15T09:31:03.761Z,20.74
2018-06-15T09:33:32.335Z,20.82
2018-06-15T09:36:00.963Z,20.97
2018-06-15T09:38:29.629Z,21.07
2018-06-15T09:40:58.539Z,21.08
2018-06-15T09:43:27.152Z,21.09
2018-06-15T09:45:55.820Z,21.34
2018-06-15T09:48:24.405Z,21.44
2018-06-15T09:50:53.088Z,21.93
2018-06-15T09:53:21.696Z,22.03
2018-06-15T09:55:50.307Z,21.91
2018-06-15T09:58:18.882Z,22.14
2018-06-15T10:00:50.380Z,22.01
2018-06-15T10:03:18.946Z,22.08
2018-06-15T10:05:47.762Z,22.06
2018-06-15T10:08:16.361Z,22.23
2018-06-15T10:10:45.052Z,22.16
2018-06-15T10:13:13.676Z,21.81
2018-06-15T10:15:42.364Z,21.60
2018-06-15T10:18:10.944Z,21.42
2018-06-15T10:20:39.664Z,21.37
2018-06-15T10:23:08.272Z,21.46
2018-06-15T10:25:36.860Z,21.58
2018-06-15T10:28:05.697Z,21.76
2018-06-15T10:30:34.294Z,22.15
2018-06-15T10:33:02.970Z,22.25
2018-06-15T10:35:31.483Z,22.80
2018-06-15T10:38:00.109Z,22.93
2018-06-15T10:40:28.816Z,22.75
2018-06-15T10:42:57.440Z,23.02
2018-06-15T10:45:26.037Z,22.60
2018-06-15T10:47:54.849Z,22.93
2018-06-15T10:50:23.435Z,22.82
2018-06-15T10:52:52.233Z,22.50
2018-06-15T10:55:20.822Z,22.45
2018-06-15T10:57:49.437Z,22.61
2018-06-15T11:00:18.128Z,22.75
2018-06-15T11:02:46.744Z,22.47
2018-06-15T11:05:15.365Z,22.45
2018-06-15T11:07:43.951Z,22.36
2018-06-15T11:10:12.769Z,22.30
2018-06-15T11:12:41.344Z,22.10
2018-06-15T11:15:10.031Z,21.92
2018-06-15T11:17:38.702Z,22.02
2018-06-15T11:20:07.335Z,21.97
2018-06-15T11:22:35.876Z,21.97
2018-06-15T11:25:04.619Z,22.00
2018-06-15T11:27:33.201Z,21.96
2018-06-15T11:30:01.834Z,22.05
2018-06-15T11:32:30.425Z,22.65
2018-06-15T11:34:59.035Z,23.42
2018-06-15T11:37:27.585Z,23.34
2018-06-15T11:39:56.192Z,23.14
2018-06-15T11:42:24.995Z,22.78
2018-06-15T11:44:54.011Z,22.88
2018-06-15T11:47:22.643Z,23.09
2018-06-15T11:49:51.281Z,22.80
2018-06-15T11:52:19.852Z,22.59
2018-06-15T11:54:48.447Z,22.38
2018-06-15T11:57:17.101Z,22.42
2018-06-15T11:59:45.742Z,22.57
2018-06-15T12:02:14.320Z,22.63
2018-06-15T12:04:42.887Z,23.11
2018-06-15T12:07:11.460Z,23.68
2018-06-15T12:09:40.059Z,23.85
2018-06-15T12:12:08.689Z,23.55
2018-06-15T12:14:37.300Z,23.23
2018-06-15T12:17:06.039Z,23.22
2018-06-15T12:19:34.667Z,22.70
2018-06-15T12:22:03.269Z,22.62
2018-06-15T12:24:31.815Z,22.56
2018-06-15T12:27:00.448Z,23.46
2018-06-15T12:29:29.016Z,24.17
2018-06-15T12:31:57.678Z,23.90
2018-06-15T12:34:26.251Z,24.34
2018-06-15T12:36:54.950Z,24.51
2018-06-15T12:39:23.460Z,24.87
2018-06-15T12:41:52.071Z,25.30
2018-06-15T12:44:20.728Z,25.09
2018-06-15T12:46:49.345Z,25.38
2018-06-15T12:49:17.948Z,24.76
2018-06-15T12:51:46.593Z,24.74
2018-06-15T12:54:15.244Z,25.32
2018-06-15T12:56:43.854Z,24.98
2018-06-15T12:59:12.531Z,25.57
2018-06-15T13:01:41.074Z,25.86
2018-06-15T13:04:09.707Z,25.61
2018-06-15T13:06:38.354Z,24.42
2018-06-15T13:09:08.590Z,24.09
2018-06-15T13:11:37.303Z,23.85
2018-06-15T13:14:06.027Z,23.57
2018-06-15T13:16:34.912Z,23.27
2018-06-15T13:19:03.838Z,23.20
2018-06-15T13:21:32.430Z,23.13
2018-06-15T13:24:01.083Z,23.20
2018-06-15T13:26:29.695Z,23.09
2018-06-15T13:28:58.335Z,23.16
2018-06-15T13:31:27.052Z,23.24
2018-06-15T13:33:55.763Z,23.43
2018-06-15T13:36:24.736Z,23.90
2018-06-15T13:38:53.405Z,24.00
2018-06-15T13:41:22.052Z,24.60
2018-06-15T13:43:50.643Z,24.27
2018-06-15T13:46:19.262Z,24.51
2018-06-15T13:48:48.125Z,24.47
2018-06-15T13:51:16.722Z,24.16
2018-06-15T13:53:45.285Z,23.83
2018-06-15T13:56:13.848Z,24.14
2018-06-15T13:58:42.404Z,24.15
2018-06-15T14:01:10.982Z,23.98
2018-06-15T14:03:39.598Z,24.03
2018-06-15T14:06:08.326Z,24.27
2018-06-15T14:08:36.864Z,24.26
2018-06-15T14:11:05.732Z,24.41
2018-06-15T14:13:34.317Z,25.10
2018-06-15T14:16:02.985Z,25.33
2018-06-15T14:18:31.560Z,25.55
2018-06-15T14:21:00.503Z,26.34
2018-06-15T14:23:29.088Z,26.23
2018-06-15T14:25:57.643Z,25.88
2018-06-15T14:28:26.268Z,25.98
2018-06-15T14:30:54.849Z,26.20
2018-06-15T14:33:23.503Z,26.62
2018-06-15T14:35:52.093Z,26.54
2018-06-15T14:38:20.748Z,26.09
2018-06-15T14:40:49.395Z,25.74
2018-06-15T14:43:18.033Z,24.98
2018-06-15T14:45:46.689Z,24.80
2018-06-15T14:48:15.322Z,24.91
2018-06-15T14:50:43.885Z,24.77
2018-06-15T14:53:12.485Z,24.59
2018-06-15T14:55:41.144Z,24.62
2018-06-15T14:58:10.276Z,24.59
2018-06-15T15:00:38.860Z,24.63
2018-06-15T15:03:07.532Z,24.74
2018-06-15T15:05:36.129Z,24.65
2018-06-15T15:08:05.721Z,24.48
2018-06-15T15:10:34.380Z,24.53
2018-06-15T15:13:02.995Z,24.57
2018-06-15T15:15:31.695Z,24.57
2018-06-15T15:18:00.410Z,24.74
2018-06-15T15:20:29.032Z,24.77
2018-06-15T15:22:57.656Z,24.82
2018-06-15T15:25:26.340Z,24.88
2018-06-15T15:27:55.079Z,24.81
2018-06-15T15:30:23.740Z,25.11
2018-06-15T15:32:52.320Z,25.69
2018-06-15T15:35:20.898Z,26.22
2018-06-15T15:37:49.653Z,26.53
2018-06-15T15:40:18.290Z,26.30
2018-06-15T15:42:47.024Z,26.03
2018-06-15T15:45:15.768Z,26.04
2018-06-15T15:47:44.645Z,26.18
2018-06-15T15:50:13.217Z,26.15
2018-06-15T15:52:41.952Z,26.24
2018-06-15T15:55:10.689Z,26.19
2018-06-15T15:57:39.431Z,26.20
2018-06-15T16:00:08.176Z,26.05
2018-06-15T16:02:36.870Z,25.94
2018-06-15T16:05:05.572Z,26.29
2018-06-15T16:07:34.224Z,26.35
2018-06-15T16:10:02.919Z,26.71
2018-06-15T16:12:31.489Z,26.59
2018-06-15T16:15:00.191Z,25.90
2018-06-15T16:17:28.995Z,25.87
2018-06-15T16:19:57.798Z,26.14
2018-06-15T16:22:26.385Z,26.66
2018-06-15T16:24:55.123Z,26.33
2018-06-15T16:27:23.819Z,26.79
2018-06-15T16:29:52.585Z,27.12
2018-06-15T16:32:21.217Z,27.31
2018-06-15T16:34:49.856Z,27.27
2018-06-15T16:37:18.783Z,27.50
2018-06-15T16:39:47.495Z,27.25
2018-06-15T16:42:16.124Z,27.13
2018-06-15T16:44:45.017Z,27.38
2018-06-15T16:47:13.814Z,27.40
2018-06-15T16:49:42.612Z,27.58
2018-06-15T16:52:11.280Z,26.86
2018-06-15T16:54:40.033Z,27.32
2018-06-15T16:57:08.646Z,27.20
2018-06-15T16:59:37.264Z,26.93
2018-06-15T17:02:06.067Z,27.01
2018-06-15T17:04:34.650Z,26.93
2018-06-15T17:07:03.225Z,27.10
2018-06-15T17:09:31.904Z,27.28
2018-06-15T17:12:00.561Z,27.52
2018-06-15T17:14:29.299Z,27.57
2018-06-15T17:16:57.876Z,27.29
2018-06-15T17:19:26.749Z,27.33
2018-06-15T17:21:55.498Z,26.67
2018-06-15T17:24:24.140Z,26.55
2018-06-15T17:26:52.817Z,26.13
2018-06-15T17:29:21.482Z,26.17
2018-06-15T17:31:50.202Z,26.02
2018-06-15T17:34:18.786Z,25.93
2018-06-15T17:36:47.541Z,25.79
2018-06-15T17:39:16.466Z,25.74
2018-06-15T17:41:45.765Z,25.55
2018-06-15T17:44:14.338Z,25.39
2018-06-15T17:46:43.161Z,25.54
2018-06-15T17:49:11.825Z,25.66
2018-06-15T17:51:40.499Z,25.59
2018-06-15T17:54:09.295Z,25.43
2018-06-15T17:56:38.341Z,25.12
2018-06-15T17:59:07.180Z,25.00
2018-06-15T18:01:35.924Z,24.98
2018-06-15T18:04:04.566Z,24.82
2018-06-15T18:06:33.172Z,24.83
2018-06-15T18:09:01.922Z,24.64
2018-06-15T18:11:30.576Z,24.52
2018-06-15T18:13:59.152Z,24.50
2018-06-15T18:16:29.472Z,24.37
2018-06-15T18:18:58.229Z,24.33
2018-06-15T18:21:26.986Z,24.31
2018-06-15T18:23:55.672Z,24.29
2018-06-15T18:26:24.504Z,24.28
2018-06-15T18:28:53.240Z,24.19
2018-06-15T18:31:21.813Z,24.16
2018-06-15T18:33:50.564Z,24.19
2018-06-15T18:36:19.286Z,24.00
2018-06-15T18:38:47.964Z,24.05
2018-06-15T18:41:16.569Z,24.04
2018-06-15T18:43:45.264Z,24.09
2018-06-15T18:46:13.908Z,24.27
2018-06-15T18:48:42.493Z,24.45
2018-06-15T18:51:11.108Z,25.09
2018-06-15T18:53:39.811Z,25.39
2018-06-15T18:56:08.401Z,25.98
2018-06-15T18:58:37.000Z,26.39
2018-06-15T19:01:05.656Z,26.86
2018-06-15T19:03:34.429Z,27.21
2018-06-15T19:06:03.108Z,27.00
2018-06-15T19:08:31.711Z,27.29
2018-06-15T19:11:00.430Z,27.53
2018-06-15T19:13:28.990Z,27.48
2018-06-15T19:15:57.638Z,27.25
2018-06-15T19:18:26.550Z,26.81
2018-06-15T19:20:55.309Z,26.29
2018-06-15T19:23:23.932Z,26.14
2018-06-15T19:25:52.584Z,25.54
2018-06-15T19:28:21.260Z,25.36
2018-06-15T19:30:50.054Z,25.07
2018-06-15T19:33:18.804Z,24.56
2018-06-15T19:35:47.658Z,24.39
2018-06-15T19:38:16.386Z,24.17
2018-06-15T19:40:44.968Z,24.12
2018-06-15T19:43:13.555Z,24.06
2018-06-15T19:45:42.336Z,24.03
2018-06-15T19:48:11.004Z,23.98
2018-06-15T19:50:39.717Z,23.92
2018-06-15T19:53:08.424Z,23.81
2018-06-15T19:55:37.112Z,23.72
2018-06-15T19:58:05.903Z,23.72
2018-06-15T20:00:34.516Z,23.73
2018-06-15T20:03:03.220Z,23.61
2018-06-15T20:05:31.857Z,23.39
2018-06-15T20:08:00.872Z,23.15
2018-06-15T20:10:29.697Z,22.95
2018-06-15T20:12:58.518Z,22.97
2018-06-15T20:15:27.105Z,22.78
2018-06-15T20:17:55.774Z,22.66
2018-06-15T20:20:24.588Z,22.76
2018-06-15T20:22:53.240Z,22.85
2018-06-15T20:25:22.241Z,22.89
2018-06-15T20:27:51.041Z,22.86
2018-06-15T20:30:19.680Z,22.91
2018-06-15T20:32:48.562Z,22.92
2018-06-15T20:35:17.129Z,22.84
2018-06-15T20:37:45.832Z,22.76
2018-06-15T20:40:14.627Z,22.59
2018-06-15T20:42:43.212Z,22.50
2018-06-15T20:45:12.028Z,22.37
2018-06-15T20:47:40.904Z,22.37
2018-06-15T20:50:09.575Z,22.45
2018-06-15T20:52:38.299Z,22.48
2018-06-15T20:55:07.048Z,22.53
2018-06-15T20:57:35.718Z,22.58
2018-06-15T21:00:05.072Z,22.63
2018-06-15T21:02:33.691Z,22.60
2018-06-15T21:05:02.345Z,22.59
2018-06-15T21:07:30.935Z,22.60
2018-06-15T21:09:59.564Z,21.93
2018-06-15T21:12:28.217Z,22.38
2018-06-15T21:14:57.068Z,22.37
2018-06-15T21:17:26.145Z,22.38
2018-06-15T21:19:54.732Z,22.44
2018-06-15T21:22:23.572Z,22.43
2018-06-15T21:24:52.460Z,22.14
2018-06-15T21:27:21.069Z,22.01
2018-06-15T21:29:49.631Z,21.80
2018-06-15T21:32:18.454Z,21.54
2018-06-15T21:34:47.146Z,21.36
2018-06-15T21:37:15.909Z,21.28
2018-06-15T21:39:44.487Z,21.34
2018-06-15T21:42:13.380Z,21.27
2018-06-15T21:44:42.138Z,21.32
2018-06-15T21:47:11.016Z,21.29
2018-06-15T21:49:39.563Z,21.26
2018-06-15T21:52:08.259Z,21.26
2018-06-15T21:54:37.036Z,21.24
2018-06-15T21:57:05.916Z,21.23
2018-06-15T21:59:34.484Z,21.28
2018-06-15T22:02:03.175Z,21.27
2018-06-15T22:04:31.908Z,21.28
2018-06-15T22:07:00.728Z,21.24
2018-06-15T22:09:29.409Z,21.13
2018-06-15T22:11:58.218Z,21.04
2018-06-15T22:14:27.070Z,20.87
2018-06-15T22:16:55.617Z,20.84
2018-06-15T22:19:24.911Z,20.77
2018-06-15T22:21:54.282Z,20.74
2018-06-15T22:24:23.715Z,20.70
2018-06-15T22:26:52.681Z,20.62
2018-06-15T22:29:21.287Z,20.49
2018-06-15T22:31:50.240Z,20.32
2018-06-15T22:34:18.870Z,20.25
2018-06-15T22:36:47.529Z,20.19
2018-06-15T22:39:16.850Z,20.21
2018-06-15T22:41:45.497Z,20.23
2018-06-15T22:44:14.541Z,20.27
2018-06-15T22:46:43.601Z,20.35
2018-06-15T22:49:12.824Z,20.47
2018-06-15T22:51:42.157Z,20.42
2018-06-15T22:54:10.995Z,20.31
2018-06-15T22:56:39.599Z,20.38
2018-06-15T22:59:08.335Z,20.32
2018-06-15T23:01:36.896Z,20.24
2018-06-15T23:04:05.536Z,20.21
2018-06-15T23:06:34.302Z,20.24
2018-06-15T23:09:03.172Z,20.24
2018-06-15T23:11:31.831Z,20.21
2018-06-15T23:14:00.601Z,20.17
2018-06-15T23:16:29.255Z,20.03
2018-06-15T23:18:57.796Z,20.04
2018-06-15T23:21:26.490Z,20.12
2018-06-15T23:23:55.032Z,20.17
2018-06-15T23:26:23.677Z,20.10
2018-06-15T23:28:52.398Z,19.97
2018-06-15T23:31:20.984Z,19.96
2018-06-15T23:33:49.848Z,19.81
2018-06-15T23:36:18.505Z,19.84
2018-06-15T23:38:47.237Z,19.80
2018-06-15T23:41:15.787Z,19.75
2018-06-15T23:43:44.415Z,19.75
2018-06-15T23:46:13.296Z,19.86
2018-06-15T23:48:41.950Z,19.78
2018-06-15T23:51:10.576Z,19.74
2018-06-15T23:53:39.308Z,19.66
2018-06-15T23:56:08.118Z,19.67
2018-06-15T23:58:36.976Z,19.77
